sensor_id;sensor_type;location;lat;lon;timestamp;P1;durP1;ratioP1;P2;durP2;ratioP2
47051;SDS011;33532;41.950;8.754;2022-11-20T05:30:06;4.32;;;1.63;;
47051;SDS011;33532;41.950;8.754;2022-11-20T05:32:32;4.00;;;1.48;;
47051;SDS011;33532;41.950;8.754;2022-11-20T05:34:57;3.33;;;1.48;;
47051;SDS011;33532;41.950;8.754;2022-11-20T05:37:23;4.85;;;1.33;;
47051;SDS011;33532;41.950;8.754;2022-11-20T05:39:48;3.15;;;1.10;;
47051;SDS011;33532;41.950;8.754;2022-11-20T05:42:14;4.93;;;1.50;;
47051;SDS011;33532;41.950;8.754;2022-11-20T05:45:00;2.85;;;1.65;;
47051;SDS011;33532;41.950;8.754;2022-11-20T05:47:28;2.60;;;1.58;;
47051;SDS011;33532;41.950;8.754;2022-11-20T05:49:55;4.00;;;1.20;;
47051;SDS011;33532;41.950;8.754;2022-11-20T05:52:21;2.38;;;1.10;;
47051;SDS011;33532;41.950;8.754;2022-11-20T05:54:46;3.13;;;1.15;;
47051;SDS011;33532;41.950;8.754;2022-11-20T05:57:12;6.93;;;1.73;;
47051;SDS011;33532;41.950;8.754;2022-11-20T05:59:37;6.28;;;1.55;;
47051;SDS011;33532;41.950;8.754;2022-11-20T06:02:03;3.15;;;1.30;;
47051;SDS011;33532;41.950;8.754;2022-11-20T06:04:28;5.47;;;1.88;;
47051;SDS011;33532;41.950;8.754;2022-11-20T06:06:54;3.35;;;1.20;;
47051;SDS011;33532;41.950;8.754;2022-11-20T06:09:19;3.10;;;1.42;;
47051;SDS011;33532;41.950;8.754;2022-11-20T06:11:44;3.13;;;1.50;;
47051;SDS011;33532;41.950;8.754;2022-11-20T06:14:10;2.30;;;1.42;;
47051;SDS011;33532;41.950;8.754;2022-11-20T06:16:35;4.53;;;1.83;;
47051;SDS011;33532;41.950;8.754;2022-11-20T06:19:01;2.63;;;1.50;;
47051;SDS011;33532;41.950;8.754;2022-11-20T06:21:26;2.85;;;1.40;;
47051;SDS011;33532;41.950;8.754;2022-11-20T06:23:52;5.85;;;2.60;;
47051;SDS011;33532;41.950;8.754;2022-11-20T06:26:19;1.70;;;1.60;;
47051;SDS011;33532;41.950;8.754;2022-11-20T06:28:46;3.50;;;1.50;;
47051;SDS011;33532;41.950;8.754;2022-11-20T06:31:12;1.83;;;1.63;;
47051;SDS011;33532;41.950;8.754;2022-11-20T06:33:40;3.42;;;1.50;;
47051;SDS011;33532;41.950;8.754;2022-11-20T06:36:05;3.15;;;1.30;;
47051;SDS011;33532;41.950;8.754;2022-11-20T06:38:31;2.20;;;1.17;;
47051;SDS011;33532;41.950;8.754;2022-11-20T06:40:56;2.10;;;1.60;;
47051;SDS011;33532;41.950;8.754;2022-11-20T06:43:22;2.90;;;1.02;;
47051;SDS011;33532;41.950;8.754;2022-11-20T06:45:52;3.60;;;2.20;;
47051;SDS011;33532;41.950;8.754;2022-11-20T06:48:18;1.77;;;1.27;;
47051;SDS011;33532;41.950;8.754;2022-11-20T06:50:44;3.65;;;1.20;;
47051;SDS011;33532;41.950;8.754;2022-11-20T06:53:09;2.90;;;1.85;;
47051;SDS011;33532;41.950;8.754;2022-11-20T06:55:35;5.30;;;1.92;;
47051;SDS011;33532;41.950;8.754;2022-11-20T06:58:00;3.40;;;1.45;;
47051;SDS011;33532;41.950;8.754;2022-11-20T07:00:25;3.72;;;1.10;;
47051;SDS011;33532;41.950;8.754;2022-11-20T07:02:51;4.70;;;1.55;;
47051;SDS011;33532;41.950;8.754;2022-11-20T07:05:16;2.40;;;1.50;;
47051;SDS011;33532;41.950;8.754;2022-11-20T07:07:42;4.82;;;1.63;;
47051;SDS011;33532;41.950;8.754;2022-11-20T07:10:08;3.80;;;1.73;;
47051;SDS011;33532;41.950;8.754;2022-11-20T07:12:33;3.17;;;1.60;;
47051;SDS011;33532;41.950;8.754;2022-11-20T07:14:59;4.65;;;1.60;;
47051;SDS011;33532;41.950;8.754;2022-11-20T07:17:24;4.07;;;1.60;;
47051;SDS011;33532;41.950;8.754;2022-11-20T07:19:50;6.22;;;1.40;;
47051;SDS011;33532;41.950;8.754;2022-11-20T07:22:15;6.95;;;1.42;;
47051;SDS011;33532;41.950;8.754;2022-11-20T07:24:41;4.50;;;1.70;;
47051;SDS011;33532;41.950;8.754;2022-11-20T07:27:06;1.45;;;1.23;;
47051;SDS011;33532;41.950;8.754;2022-11-20T07:29:32;9.95;;;1.98;;
47051;SDS011;33532;41.950;8.754;2022-11-20T07:31:57;4.45;;;1.67;;
47051;SDS011;33532;41.950;8.754;2022-11-20T07:34:22;2.63;;;1.88;;
47051;SDS011;33532;41.950;8.754;2022-11-20T07:36:48;4.97;;;1.85;;
47051;SDS011;33532;41.950;8.754;2022-11-20T07:39:13;3.72;;;1.67;;
47051;SDS011;33532;41.950;8.754;2022-11-20T07:41:39;2.30;;;1.45;;
47051;SDS011;33532;41.950;8.754;2022-11-20T07:44:04;3.05;;;1.25;;
47051;SDS011;33532;41.950;8.754;2022-11-20T07:46:30;3.22;;;2.28;;
47051;SDS011;33532;41.950;8.754;2022-11-20T07:48:56;3.88;;;1.50;;
47051;SDS011;33532;41.950;8.754;2022-11-20T07:51:21;5.43;;;2.17;;
47051;SDS011;33532;41.950;8.754;2022-11-20T07:53:47;5.68;;;1.60;;
47051;SDS011;33532;41.950;8.754;2022-11-20T07:56:12;3.47;;;1.60;;
47051;SDS011;33532;41.950;8.754;2022-11-20T07:58:39;3.95;;;2.20;;
47051;SDS011;33532;41.950;8.754;2022-11-20T08:01:05;3.45;;;1.80;;
47051;SDS011;33532;41.950;8.754;2022-11-20T08:03:32;3.13;;;2.17;;
47051;SDS011;33532;41.950;8.754;2022-11-20T08:05:58;4.15;;;1.98;;
47051;SDS011;33532;41.950;8.754;2022-11-20T08:08:25;2.97;;;1.67;;
47051;SDS011;33532;41.950;8.754;2022-11-20T08:10:50;5.22;;;1.88;;
47051;SDS011;33532;41.950;8.754;2022-11-20T08:13:16;4.65;;;2.30;;
47051;SDS011;33532;41.950;8.754;2022-11-20T08:16:00;3.67;;;2.00;;
47051;SDS011;33532;41.950;8.754;2022-11-20T08:18:26;3.78;;;2.10;;
47051;SDS011;33532;41.950;8.754;2022-11-20T08:20:51;6.50;;;1.95;;
47051;SDS011;33532;41.950;8.754;2022-11-20T08:23:16;4.43;;;1.85;;
47051;SDS011;33532;41.950;8.754;2022-11-20T08:25:42;5.07;;;2.50;;
47051;SDS011;33532;41.950;8.754;2022-11-20T08:28:08;4.60;;;2.42;;
47051;SDS011;33532;41.950;8.754;2022-11-20T08:30:34;3.90;;;2.00;;
47051;SDS011;33532;41.950;8.754;2022-11-20T08:33:04;3.92;;;2.15;;
47051;SDS011;33532;41.950;8.754;2022-11-20T08:35:37;5.72;;;2.22;;
47051;SDS011;33532;41.950;8.754;2022-11-20T08:38:03;4.28;;;1.77;;
47051;SDS011;33532;41.950;8.754;2022-11-20T08:40:30;4.32;;;2.00;;
47051;SDS011;33532;41.950;8.754;2022-11-20T08:42:56;3.00;;;2.00;;
47051;SDS011;33532;41.950;8.754;2022-11-20T08:45:21;2.83;;;2.25;;
47051;SDS011;33532;41.950;8.754;2022-11-20T08:47:47;4.18;;;2.10;;
47051;SDS011;33532;41.950;8.754;2022-11-20T08:50:13;3.28;;;2.20;;
47051;SDS011;33532;41.950;8.754;2022-11-20T08:52:39;2.78;;;2.20;;
47051;SDS011;33532;41.950;8.754;2022-11-20T08:55:06;5.72;;;2.17;;
47051;SDS011;33532;41.950;8.754;2022-11-20T08:57:32;7.43;;;2.85;;
47051;SDS011;33532;41.950;8.754;2022-11-20T08:59:58;5.18;;;2.80;;
47051;SDS011;33532;41.950;8.754;2022-11-20T09:02:24;3.72;;;2.22;;
47051;SDS011;33532;41.950;8.754;2022-11-20T09:04:49;3.03;;;2.33;;
47051;SDS011;33532;41.950;8.754;2022-11-20T09:07:15;5.63;;;2.10;;
47051;SDS011;33532;41.950;8.754;2022-11-20T09:09:40;3.92;;;2.00;;
47051;SDS011;33532;41.950;8.754;2022-11-20T09:12:05;3.78;;;2.38;;
47051;SDS011;33532;41.950;8.754;2022-11-20T09:14:31;1.77;;;1.65;;
47051;SDS011;33532;41.950;8.754;2022-11-20T09:16:56;4.53;;;2.30;;
47051;SDS011;33532;41.950;8.754;2022-11-20T09:19:23;2.70;;;2.10;;
47051;SDS011;33532;41.950;8.754;2022-11-20T09:21:49;2.80;;;2.58;;
47051;SDS011;33532;41.950;8.754;2022-11-20T09:24:14;3.20;;;1.90;;
47051;SDS011;33532;41.950;8.754;2022-11-20T09:26:40;3.38;;;2.67;;
47051;SDS011;33532;41.950;8.754;2022-11-20T09:29:05;2.90;;;2.10;;
47051;SDS011;33532;41.950;8.754;2022-11-20T09:31:30;4.15;;;2.53;;
47051;SDS011;33532;41.950;8.754;2022-11-20T09:33:56;2.85;;;2.13;;
47051;SDS011;33532;41.950;8.754;2022-11-20T09:36:22;3.10;;;2.28;;
47051;SDS011;33532;41.950;8.754;2022-11-20T09:38:47;3.15;;;1.80;;
47051;SDS011;33532;41.950;8.754;2022-11-20T09:41:26;5.63;;;2.35;;
47051;SDS011;33532;41.950;8.754;2022-11-20T09:46:49;4.28;;;2.85;;
47051;SDS011;33532;41.950;8.754;2022-11-20T09:52:24;3.28;;;2.42;;
47051;SDS011;33532;41.950;8.754;2022-11-20T09:55:03;3.83;;;2.72;;
47051;SDS011;33532;41.950;8.754;2022-11-20T09:57:35;2.70;;;2.30;;
47051;SDS011;33532;41.950;8.754;2022-11-20T10:00:03;3.88;;;2.53;;
47051;SDS011;33532;41.950;8.754;2022-11-20T10:05:01;3.33;;;1.70;;
47051;SDS011;33532;41.950;8.754;2022-11-20T10:07:44;3.00;;;2.10;;
47051;SDS011;33532;41.950;8.754;2022-11-20T10:10:29;2.80;;;1.88;;
47051;SDS011;33532;41.950;8.754;2022-11-20T10:23:28;5.20;;;2.13;;
47051;SDS011;33532;41.950;8.754;2022-11-20T10:31:09;6.10;;;2.65;;
47051;SDS011;33532;41.950;8.754;2022-11-20T10:33:41;3.85;;;1.90;;
47051;SDS011;33532;41.950;8.754;2022-11-20T10:36:26;3.60;;;1.98;;
47051;SDS011;33532;41.950;8.754;2022-11-20T10:38:57;2.45;;;1.80;;
47051;SDS011;33532;41.950;8.754;2022-11-20T10:41:27;4.38;;;2.10;;
47051;SDS011;33532;41.950;8.754;2022-11-20T10:44:12;5.00;;;2.88;;
47051;SDS011;33532;41.950;8.754;2022-11-20T10:46:43;2.95;;;2.20;;
47051;SDS011;33532;41.950;8.754;2022-11-20T10:49:13;3.28;;;2.03;;
47051;SDS011;33532;41.950;8.754;2022-11-20T11:02:15;8.52;;;2.58;;
47051;SDS011;33532;41.950;8.754;2022-11-20T11:04:57;4.20;;;2.50;;
47051;SDS011;33532;41.950;8.754;2022-11-20T11:07:30;3.83;;;2.50;;
47051;SDS011;33532;41.950;8.754;2022-11-20T11:10:05;4.38;;;2.63;;
47051;SDS011;33532;41.950;8.754;2022-11-20T11:12:46;2.87;;;2.13;;
47051;SDS011;33532;41.950;8.754;2022-11-20T11:15:25;2.90;;;2.13;;
47051;SDS011;33532;41.950;8.754;2022-11-20T11:17:53;4.18;;;2.47;;
47051;SDS011;33532;41.950;8.754;2022-11-20T11:20:20;3.90;;;2.75;;
47051;SDS011;33532;41.950;8.754;2022-11-20T11:25:20;3.35;;;2.72;;
47051;SDS011;33532;41.950;8.754;2022-11-20T11:27:50;3.77;;;2.30;;
47051;SDS011;33532;41.950;8.754;2022-11-20T11:30:18;7.25;;;3.20;;
47051;SDS011;33532;41.950;8.754;2022-11-20T11:32:44;3.90;;;2.90;;
47051;SDS011;33532;41.950;8.754;2022-11-20T11:35:26;5.25;;;3.78;;
47051;SDS011;33532;41.950;8.754;2022-11-20T11:37:54;4.53;;;3.08;;
47051;SDS011;33532;41.950;8.754;2022-11-20T11:40:27;5.45;;;2.63;;
47051;SDS011;33532;41.950;8.754;2022-11-20T11:42:58;3.53;;;2.45;;
47051;SDS011;33532;41.950;8.754;2022-11-20T11:45:26;4.00;;;2.22;;
47051;SDS011;33532;41.950;8.754;2022-11-20T11:47:52;4.80;;;2.55;;
47051;SDS011;33532;41.950;8.754;2022-11-20T11:55:35;5.13;;;2.65;;
47051;SDS011;33532;41.950;8.754;2022-11-20T11:58:23;6.13;;;2.63;;
47051;SDS011;33532;41.950;8.754;2022-11-20T12:01:19;5.15;;;2.25;;
47051;SDS011;33532;41.950;8.754;2022-11-20T12:06:27;4.60;;;2.40;;
47051;SDS011;33532;41.950;8.754;2022-11-20T12:14:16;4.47;;;2.08;;
47051;SDS011;33532;41.950;8.754;2022-11-20T12:16:44;2.78;;;2.45;;
47051;SDS011;33532;41.950;8.754;2022-11-20T12:19:12;4.43;;;2.15;;
47051;SDS011;33532;41.950;8.754;2022-11-20T12:24:41;3.17;;;2.00;;
47051;SDS011;33532;41.950;8.754;2022-11-20T12:43:22;2.63;;;1.80;;
47051;SDS011;33532;41.950;8.754;2022-11-20T12:57:58;3.17;;;1.90;;
47051;SDS011;33532;41.950;8.754;2022-11-20T13:00:29;2.35;;;1.70;;
47051;SDS011;33532;41.950;8.754;2022-11-20T13:03:23;2.40;;;1.65;;
47051;SDS011;33532;41.950;8.754;2022-11-20T13:08:53;3.43;;;1.60;;
47051;SDS011;33532;41.950;8.754;2022-11-20T13:19:11;3.85;;;1.95;;
47051;SDS011;33532;41.950;8.754;2022-11-20T13:21:39;3.30;;;1.65;;
47051;SDS011;33532;41.950;8.754;2022-11-20T13:24:25;2.88;;;2.13;;
47051;SDS011;33532;41.950;8.754;2022-11-20T13:29:26;3.50;;;1.30;;
47051;SDS011;33532;41.950;8.754;2022-11-20T13:32:00;1.33;;;1.23;;
47051;SDS011;33532;41.950;8.754;2022-11-20T13:34:53;1.90;;;1.63;;
47051;SDS011;33532;41.950;8.754;2022-11-20T13:37:34;2.47;;;1.63;;
47051;SDS011;33532;41.950;8.754;2022-11-20T13:40:50;1.52;;;1.42;;
47051;SDS011;33532;41.950;8.754;2022-11-20T13:48:38;1.38;;;1.02;;
47051;SDS011;33532;41.950;8.754;2022-11-20T13:51:11;2.85;;;1.30;;
47051;SDS011;33532;41.950;8.754;2022-11-20T14:02:25;1.45;;;1.30;;
47051;SDS011;33532;41.950;8.754;2022-11-20T14:04:52;1.58;;;1.30;;
47051;SDS011;33532;41.950;8.754;2022-11-20T14:07:20;1.35;;;1.10;;
47051;SDS011;33532;41.950;8.754;2022-11-20T14:09:54;2.88;;;1.30;;
47051;SDS011;33532;41.950;8.754;2022-11-20T14:12:22;2.65;;;1.50;;
47051;SDS011;33532;41.950;8.754;2022-11-20T14:14:52;2.53;;;1.55;;
47051;SDS011;33532;41.950;8.754;2022-11-20T14:17:23;2.17;;;1.50;;
47051;SDS011;33532;41.950;8.754;2022-11-20T14:20:00;1.75;;;1.30;;
47051;SDS011;33532;41.950;8.754;2022-11-20T14:22:27;3.38;;;1.40;;
47051;SDS011;33532;41.950;8.754;2022-11-20T14:27:57;1.38;;;1.27;;
47051;SDS011;33532;41.950;8.754;2022-11-20T14:30:24;3.40;;;1.48;;
47051;SDS011;33532;41.950;8.754;2022-11-20T14:32:51;3.05;;;1.30;;
47051;SDS011;33532;41.950;8.754;2022-11-20T14:37:50;1.73;;;1.25;;
47051;SDS011;33532;41.950;8.754;2022-11-20T14:43:00;2.13;;;1.58;;
47051;SDS011;33532;41.950;8.754;2022-11-20T14:45:25;2.55;;;1.35;;
47051;SDS011;33532;41.950;8.754;2022-11-20T14:47:52;1.38;;;1.20;;
47051;SDS011;33532;41.950;8.754;2022-11-20T14:50:24;1.35;;;1.25;;
47051;SDS011;33532;41.950;8.754;2022-11-20T14:52:52;4.68;;;1.50;;
47051;SDS011;33532;41.950;8.754;2022-11-20T14:55:29;1.92;;;1.52;;
47051;SDS011;33532;41.950;8.754;2022-11-20T14:58:06;3.60;;;1.83;;
47051;SDS011;33532;41.950;8.754;2022-11-20T15:00:52;3.05;;;1.30;;
47051;SDS011;33532;41.950;8.754;2022-11-20T15:03:22;3.10;;;1.63;;
47051;SDS011;33532;41.950;8.754;2022-11-20T15:05:48;2.45;;;1.55;;
47051;SDS011;33532;41.950;8.754;2022-11-20T15:08:15;1.08;;;1.08;;
47051;SDS011;33532;41.950;8.754;2022-11-20T15:10:45;2.40;;;1.33;;
47051;SDS011;33532;41.950;8.754;2022-11-20T15:13:12;2.00;;;1.40;;
47051;SDS011;33532;41.950;8.754;2022-11-20T15:18:15;2.47;;;1.27;;
47051;SDS011;33532;41.950;8.754;2022-11-20T15:20:44;2.83;;;1.30;;
47051;SDS011;33532;41.950;8.754;2022-11-20T15:23:11;1.65;;;1.30;;
47051;SDS011;33532;41.950;8.754;2022-11-20T15:25:38;1.58;;;1.38;;
47051;SDS011;33532;41.950;8.754;2022-11-20T15:28:04;2.05;;;1.50;;
47051;SDS011;33532;41.950;8.754;2022-11-20T15:30:49;4.03;;;1.60;;
47051;SDS011;33532;41.950;8.754;2022-11-20T15:33:15;1.58;;;1.27;;
47051;SDS011;33532;41.950;8.754;2022-11-20T15:35:41;1.45;;;1.20;;
47051;SDS011;33532;41.950;8.754;2022-11-20T15:38:06;1.90;;;1.63;;
47051;SDS011;33532;41.950;8.754;2022-11-20T15:40:32;2.38;;;1.40;;
47051;SDS011;33532;41.950;8.754;2022-11-20T15:42:57;2.28;;;1.30;;
47051;SDS011;33532;41.950;8.754;2022-11-20T15:45:42;1.85;;;1.40;;
47051;SDS011;33532;41.950;8.754;2022-11-20T15:48:31;2.42;;;1.70;;
47051;SDS011;33532;41.950;8.754;2022-11-20T15:51:01;1.70;;;1.50;;
47051;SDS011;33532;41.950;8.754;2022-11-20T15:53:28;2.40;;;1.50;;
47051;SDS011;33532;41.950;8.754;2022-11-20T15:55:54;1.70;;;1.40;;
47051;SDS011;33532;41.950;8.754;2022-11-20T15:58:19;1.73;;;1.48;;
47051;SDS011;33532;41.950;8.754;2022-11-20T16:00:45;1.83;;;1.30;;
47051;SDS011;33532;41.950;8.754;2022-11-20T16:03:11;1.52;;;1.38;;
47051;SDS011;33532;41.950;8.754;2022-11-20T16:05:37;1.50;;;1.40;;
47051;SDS011;33532;41.950;8.754;2022-11-20T16:08:02;1.80;;;1.50;;
47051;SDS011;33532;41.950;8.754;2022-11-20T16:10:28;1.52;;;1.42;;
47051;SDS011;33532;41.950;8.754;2022-11-20T16:12:53;5.47;;;2.28;;
47051;SDS011;33532;41.950;8.754;2022-11-20T16:15:38;2.00;;;1.42;;
47051;SDS011;33532;41.950;8.754;2022-11-20T16:18:16;1.70;;;1.38;;
47051;SDS011;33532;41.950;8.754;2022-11-20T16:20:43;1.92;;;1.50;;
47051;SDS011;33532;41.950;8.754;2022-11-20T16:23:09;1.83;;;1.30;;
47051;SDS011;33532;41.950;8.754;2022-11-20T16:25:35;2.08;;;1.17;;
47051;SDS011;33532;41.950;8.754;2022-11-20T16:28:00;1.63;;;1.35;;
47051;SDS011;33532;41.950;8.754;2022-11-20T16:30:26;1.52;;;1.25;;
47051;SDS011;33532;41.950;8.754;2022-11-20T16:32:52;1.50;;;1.35;;
47051;SDS011;33532;41.950;8.754;2022-11-20T16:35:17;7.43;;;1.55;;
47051;SDS011;33532;41.950;8.754;2022-11-20T16:37:42;2.42;;;1.58;;
47051;SDS011;33532;41.950;8.754;2022-11-20T16:40:08;4.57;;;1.70;;
47051;SDS011;33532;41.950;8.754;2022-11-20T16:42:35;2.88;;;1.60;;
47051;SDS011;33532;41.950;8.754;2022-11-20T16:45:01;1.80;;;1.60;;
47051;SDS011;33532;41.950;8.754;2022-11-20T16:47:27;1.88;;;1.55;;
47051;SDS011;33532;41.950;8.754;2022-11-20T16:49:53;4.55;;;2.42;;
47051;SDS011;33532;41.950;8.754;2022-11-20T16:52:18;2.38;;;1.38;;
47051;SDS011;33532;41.950;8.754;2022-11-20T16:54:43;1.50;;;1.40;;
47051;SDS011;33532;41.950;8.754;2022-11-20T16:57:09;2.15;;;1.90;;
47051;SDS011;33532;41.950;8.754;2022-11-20T16:59:34;2.47;;;1.75;;
47051;SDS011;33532;41.950;8.754;2022-11-20T17:02:00;3.78;;;1.88;;
47051;SDS011;33532;41.950;8.754;2022-11-20T17:04:25;2.53;;;1.90;;
47051;SDS011;33532;41.950;8.754;2022-11-20T17:06:50;2.03;;;1.33;;
47051;SDS011;33532;41.950;8.754;2022-11-20T17:09:16;2.58;;;1.63;;
47051;SDS011;33532;41.950;8.754;2022-11-20T17:11:41;1.85;;;1.48;;
47051;SDS011;33532;41.950;8.754;2022-11-20T17:14:07;2.30;;;1.75;;
47051;SDS011;33532;41.950;8.754;2022-11-20T17:16:33;2.70;;;1.90;;
47051;SDS011;33532;41.950;8.754;2022-11-20T17:18:59;3.20;;;1.98;;
47051;SDS011;33532;41.950;8.754;2022-11-20T17:21:25;4.30;;;1.90;;
47051;SDS011;33532;41.950;8.754;2022-11-20T17:23:51;2.25;;;1.80;;
47051;SDS011;33532;41.950;8.754;2022-11-20T17:26:17;1.80;;;1.50;;
47051;SDS011;33532;41.950;8.754;2022-11-20T17:28:53;3.22;;;1.98;;
47051;SDS011;33532;41.950;8.754;2022-11-20T17:31:30;2.75;;;1.80;;
47051;SDS011;33532;41.950;8.754;2022-11-20T17:33:56;2.60;;;1.73;;
47051;SDS011;33532;41.950;8.754;2022-11-20T17:36:24;1.98;;;1.65;;
47051;SDS011;33532;41.950;8.754;2022-11-20T17:38:50;3.17;;;1.90;;
47051;SDS011;33532;41.950;8.754;2022-11-20T17:41:17;1.90;;;1.70;;
47051;SDS011;33532;41.950;8.754;2022-11-20T17:43:43;1.70;;;1.60;;
47051;SDS011;33532;41.950;8.754;2022-11-20T17:46:10;2.00;;;1.63;;
47051;SDS011;33532;41.950;8.754;2022-11-20T17:48:37;2.33;;;1.55;;
47051;SDS011;33532;41.950;8.754;2022-11-20T17:51:06;2.97;;;1.65;;
47051;SDS011;33532;41.950;8.754;2022-11-20T17:53:32;3.10;;;1.90;;
47051;SDS011;33532;41.950;8.754;2022-11-20T17:55:59;2.45;;;1.90;;
47051;SDS011;33532;41.950;8.754;2022-11-20T17:58:43;2.28;;;1.92;;
47051;SDS011;33532;41.950;8.754;2022-11-20T18:01:09;2.83;;;1.80;;
47051;SDS011;33532;41.950;8.754;2022-11-20T18:03:35;1.92;;;1.58;;
47051;SDS011;33532;41.950;8.754;2022-11-20T18:06:11;1.98;;;1.70;;
47051;SDS011;33532;41.950;8.754;2022-11-20T18:08:37;5.60;;;1.98;;
47051;SDS011;33532;41.950;8.754;2022-11-20T18:11:09;2.40;;;1.85;;
47051;SDS011;33532;41.950;8.754;2022-11-20T18:13:45;3.78;;;2.08;;
47051;SDS011;33532;41.950;8.754;2022-11-20T18:16:31;3.10;;;1.90;;
47051;SDS011;33532;41.950;8.754;2022-11-20T18:18:58;3.55;;;2.15;;
47051;SDS011;33532;41.950;8.754;2022-11-20T18:21:25;4.07;;;2.70;;
47051;SDS011;33532;41.950;8.754;2022-11-20T18:23:51;3.20;;;2.55;;
47051;SDS011;33532;41.950;8.754;2022-11-20T18:26:17;2.80;;;2.20;;
47051;SDS011;33532;41.950;8.754;2022-11-20T18:28:43;3.38;;;2.53;;
47051;SDS011;33532;41.950;8.754;2022-11-20T18:31:09;4.57;;;2.75;;
47051;SDS011;33532;41.950;8.754;2022-11-20T18:33:35;4.20;;;2.67;;
47051;SDS011;33532;41.950;8.754;2022-11-20T18:38:46;3.85;;;2.10;;
47051;SDS011;33532;41.950;8.754;2022-11-20T18:41:13;2.92;;;2.45;;
47051;SDS011;33532;41.950;8.754;2022-11-20T18:43:58;2.83;;;2.25;;
47051;SDS011;33532;41.950;8.754;2022-11-20T18:46:43;4.60;;;2.80;;
47051;SDS011;33532;41.950;8.754;2022-11-20T18:49:09;3.05;;;2.75;;
47051;SDS011;33532;41.950;8.754;2022-11-20T18:51:35;3.72;;;2.45;;
47051;SDS011;33532;41.950;8.754;2022-11-20T18:54:01;4.20;;;2.33;;
47051;SDS011;33532;41.950;8.754;2022-11-20T18:56:27;4.65;;;3.30;;
47051;SDS011;33532;41.950;8.754;2022-11-20T18:58:52;2.55;;;2.00;;
47051;SDS011;33532;41.950;8.754;2022-11-20T19:01:18;3.03;;;2.30;;
47051;SDS011;33532;41.950;8.754;2022-11-20T19:03:43;3.50;;;2.30;;
47051;SDS011;33532;41.950;8.754;2022-11-20T19:06:13;3.10;;;2.80;;
47051;SDS011;33532;41.950;8.754;2022-11-20T19:08:39;3.22;;;2.72;;
47051;SDS011;33532;41.950;8.754;2022-11-20T19:11:05;4.93;;;2.88;;
47051;SDS011;33532;41.950;8.754;2022-11-20T19:13:32;4.93;;;3.42;;
47051;SDS011;33532;41.950;8.754;2022-11-20T19:16:02;4.00;;;3.55;;
47051;SDS011;33532;41.950;8.754;2022-11-20T19:18:28;3.83;;;3.42;;
47051;SDS011;33532;41.950;8.754;2022-11-20T19:20:54;3.97;;;3.28;;
47051;SDS011;33532;41.950;8.754;2022-11-20T19:23:19;4.32;;;3.42;;
47051;SDS011;33532;41.950;8.754;2022-11-20T19:25:46;4.32;;;3.35;;
47051;SDS011;33532;41.950;8.754;2022-11-20T19:28:11;6.55;;;4.32;;
47051;SDS011;33532;41.950;8.754;2022-11-20T19:30:37;6.95;;;3.63;;
47051;SDS011;33532;41.950;8.754;2022-11-20T19:33:03;5.10;;;3.85;;
47051;SDS011;33532;41.950;8.754;2022-11-20T19:35:28;4.88;;;4.00;;
47051;SDS011;33532;41.950;8.754;2022-11-20T19:37:53;7.10;;;3.97;;
47051;SDS011;33532;41.950;8.754;2022-11-20T19:40:19;5.18;;;4.38;;
47051;SDS011;33532;41.950;8.754;2022-11-20T19:42:44;4.68;;;3.92;;
47051;SDS011;33532;41.950;8.754;2022-11-20T19:45:10;6.00;;;3.97;;
47051;SDS011;33532;41.950;8.754;2022-11-20T19:47:35;4.93;;;4.18;;
47051;SDS011;33532;41.950;8.754;2022-11-20T19:50:00;4.45;;;4.00;;
47051;SDS011;33532;41.950;8.754;2022-11-20T19:52:26;4.55;;;4.03;;
47051;SDS011;33532;41.950;8.754;2022-11-20T19:54:51;4.85;;;4.15;;
47051;SDS011;33532;41.950;8.754;2022-11-20T19:57:17;6.28;;;5.22;;
47051;SDS011;33532;41.950;8.754;2022-11-20T19:59:42;6.10;;;4.50;;
47051;SDS011;33532;41.950;8.754;2022-11-20T20:02:09;7.47;;;4.38;;
47051;SDS011;33532;41.950;8.754;2022-11-20T20:04:35;6.53;;;4.72;;
47051;SDS011;33532;41.950;8.754;2022-11-20T20:07:00;7.75;;;5.22;;
47051;SDS011;33532;41.950;8.754;2022-11-20T20:09:27;7.60;;;6.28;;
47051;SDS011;33532;41.950;8.754;2022-11-20T20:11:54;5.90;;;5.30;;
47051;SDS011;33532;41.950;8.754;2022-11-20T20:14:20;7.22;;;4.70;;
47051;SDS011;33532;41.950;8.754;2022-11-20T20:16:45;8.30;;;4.80;;
47051;SDS011;33532;41.950;8.754;2022-11-20T20:19:12;6.68;;;5.30;;
47051;SDS011;33532;41.950;8.754;2022-11-20T20:21:38;8.57;;;5.68;;
47051;SDS011;33532;41.950;8.754;2022-11-20T20:24:05;8.35;;;6.13;;
47051;SDS011;33532;41.950;8.754;2022-11-20T20:26:31;7.10;;;5.20;;
47051;SDS011;33532;41.950;8.754;2022-11-20T20:28:56;5.95;;;4.80;;
47051;SDS011;33532;41.950;8.754;2022-11-20T20:31:23;7.25;;;5.35;;
47051;SDS011;33532;41.950;8.754;2022-11-20T20:33:50;6.57;;;5.28;;
47051;SDS011;33532;41.950;8.754;2022-11-20T20:36:17;5.45;;;4.95;;
47051;SDS011;33532;41.950;8.754;2022-11-20T20:38:43;6.80;;;5.35;;
47051;SDS011;33532;41.950;8.754;2022-11-20T20:41:10;6.07;;;4.95;;
47051;SDS011;33532;41.950;8.754;2022-11-20T20:43:36;5.68;;;5.18;;
47051;SDS011;33532;41.950;8.754;2022-11-20T20:46:20;5.63;;;4.97;;
47051;SDS011;33532;41.950;8.754;2022-11-20T20:48:45;8.93;;;6.15;;
47051;SDS011;33532;41.950;8.754;2022-11-20T20:51:11;6.13;;;5.30;;
47051;SDS011;33532;41.950;8.754;2022-11-20T20:53:37;6.10;;;5.50;;
47051;SDS011;33532;41.950;8.754;2022-11-20T20:56:02;6.35;;;5.38;;
47051;SDS011;33532;41.950;8.754;2022-11-20T20:58:28;5.15;;;4.50;;
47051;SDS011;33532;41.950;8.754;2022-11-20T21:01:00;6.43;;;5.50;;
47051;SDS011;33532;41.950;8.754;2022-11-20T21:03:26;5.07;;;4.57;;
47051;SDS011;33532;41.950;8.754;2022-11-20T21:05:55;6.85;;;5.40;;
47051;SDS011;33532;41.950;8.754;2022-11-20T21:08:21;6.53;;;5.30;;
47051;SDS011;33532;41.950;8.754;2022-11-20T21:10:49;5.55;;;4.95;;
47051;SDS011;33532;41.950;8.754;2022-11-20T21:13:21;5.88;;;4.80;;
47051;SDS011;33532;41.950;8.754;2022-11-20T21:15:48;5.50;;;5.00;;
47051;SDS011;33532;41.950;8.754;2022-11-20T21:18:15;7.78;;;5.05;;
47051;SDS011;33532;41.950;8.754;2022-11-20T21:20:44;6.15;;;5.30;;
47051;SDS011;33532;41.950;8.754;2022-11-20T21:23:28;5.95;;;4.80;;
47051;SDS011;33532;41.950;8.754;2022-11-20T21:25:54;5.85;;;4.97;;
47051;SDS011;33532;41.950;8.754;2022-11-20T21:28:19;6.78;;;5.30;;
47051;SDS011;33532;41.950;8.754;2022-11-20T21:30:45;5.72;;;4.63;;
47051;SDS011;33532;41.950;8.754;2022-11-20T21:33:11;7.05;;;4.68;;
47051;SDS011;33532;41.950;8.754;2022-11-20T21:35:36;5.95;;;4.57;;
47051;SDS011;33532;41.950;8.754;2022-11-20T21:38:02;7.90;;;5.18;;
47051;SDS011;33532;41.950;8.754;2022-11-20T21:40:28;7.63;;;4.80;;
47051;SDS011;33532;41.950;8.754;2022-11-20T21:42:53;5.22;;;4.68;;
47051;SDS011;33532;41.950;8.754;2022-11-20T21:45:18;5.38;;;4.88;;
47051;SDS011;33532;41.950;8.754;2022-11-20T21:47:44;7.05;;;5.22;;
47051;SDS011;33532;41.950;8.754;2022-11-20T21:50:12;6.00;;;4.65;;
47051;SDS011;33532;41.950;8.754;2022-11-20T21:52:38;5.65;;;4.65;;
